sensor_id;sensor_type;location;lat;lon;timestamp;P1;durP1;ratioP1;P2;durP2;ratioP2
58966;SDS011;44744;51.894;5.080;2022-10-16T00:00:19;6.30;;;2.80;;
58966;SDS011;44744;51.894;5.080;2022-10-16T00:01:20;5.10;;;2.60;;
58966;SDS011;44744;51.894;5.080;2022-10-16T00:02:22;4.80;;;2.60;;
58966;SDS011;44744;51.894;5.080;2022-10-16T00:03:23;4.20;;;2.90;;
58966;SDS011;44744;51.894;5.080;2022-10-16T00:04:23;7.90;;;3.50;;
58966;SDS011;44744;51.894;5.080;2022-10-16T00:05:24;5.60;;;2.60;;
58966;SDS011;44744;51.894;5.080;2022-10-16T00:06:24;5.20;;;2.60;;
58966;SDS011;44744;51.894;5.080;2022-10-16T00:07:25;4.90;;;2.90;;
58966;SDS011;44744;51.894;5.080;2022-10-16T00:08:27;7.10;;;2.50;;
58966;SDS011;44744;51.894;5.080;2022-10-16T00:09:27;5.60;;;2.80;;
58966;SDS011;44744;51.894;5.080;2022-10-16T00:10:28;8.80;;;2.70;;
58966;SDS011;44744;51.894;5.080;2022-10-16T00:11:32;7.00;;;2.60;;
58966;SDS011;44744;51.894;5.080;2022-10-16T00:12:33;4.20;;;2.60;;
58966;SDS011;44744;51.894;5.080;2022-10-16T00:13:34;7.30;;;2.60;;
58966;SDS011;44744;51.894;5.080;2022-10-16T00:14:36;4.40;;;2.40;;
58966;SDS011;44744;51.894;5.080;2022-10-16T00:15:37;4.90;;;2.60;;
58966;SDS011;44744;51.894;5.080;2022-10-16T00:16:37;4.80;;;2.50;;
58966;SDS011;44744;51.894;5.080;2022-10-16T00:17:37;7.60;;;3.00;;
58966;SDS011;44744;51.894;5.080;2022-10-16T00:18:38;5.80;;;2.90;;
58966;SDS011;44744;51.894;5.080;2022-10-16T00:19:39;7.10;;;3.30;;
58966;SDS011;44744;51.894;5.080;2022-10-16T00:20:39;5.50;;;3.00;;
58966;SDS011;44744;51.894;5.080;2022-10-16T00:21:40;4.50;;;3.00;;
58966;SDS011;44744;51.894;5.080;2022-10-16T00:22:40;4.70;;;2.90;;
58966;SDS011;44744;51.894;5.080;2022-10-16T00:23:41;13.80;;;3.00;;
58966;SDS011;44744;51.894;5.080;2022-10-16T00:24:41;5.60;;;2.70;;
58966;SDS011;44744;51.894;5.080;2022-10-16T00:25:41;7.00;;;3.00;;
58966;SDS011;44744;51.894;5.080;2022-10-16T00:26:41;8.10;;;2.60;;
58966;SDS011;44744;51.894;5.080;2022-10-16T00:27:42;5.80;;;3.60;;
58966;SDS011;44744;51.894;5.080;2022-10-16T00:28:42;4.30;;;2.50;;
58966;SDS011;44744;51.894;5.080;2022-10-16T00:29:49;7.10;;;3.50;;
58966;SDS011;44744;51.894;5.080;2022-10-16T00:30:50;4.30;;;2.80;;
58966;SDS011;44744;51.894;5.080;2022-10-16T00:31:50;6.30;;;3.10;;
58966;SDS011;44744;51.894;5.080;2022-10-16T00:32:51;5.00;;;3.00;;
58966;SDS011;44744;51.894;5.080;2022-10-16T00:33:51;4.50;;;2.50;;
58966;SDS011;44744;51.894;5.080;2022-10-16T00:34:52;5.10;;;2.70;;
58966;SDS011;44744;51.894;5.080;2022-10-16T00:35:52;4.80;;;2.40;;
58966;SDS011;44744;51.894;5.080;2022-10-16T00:36:52;6.70;;;2.50;;
58966;SDS011;44744;51.894;5.080;2022-10-16T00:37:52;5.30;;;2.90;;
58966;SDS011;44744;51.894;5.080;2022-10-16T00:38:54;4.80;;;2.90;;
58966;SDS011;44744;51.894;5.080;2022-10-16T00:39:56;4.80;;;2.50;;
58966;SDS011;44744;51.894;5.080;2022-10-16T00:40:56;5.10;;;2.50;;
58966;SDS011;44744;51.894;5.080;2022-10-16T00:41:57;6.00;;;3.00;;
58966;SDS011;44744;51.894;5.080;2022-10-16T00:42:57;4.70;;;2.50;;
58966;SDS011;44744;51.894;5.080;2022-10-16T00:43:59;4.10;;;2.30;;
58966;SDS011;44744;51.894;5.080;2022-10-16T00:45:00;4.70;;;2.70;;
58966;SDS011;44744;51.894;5.080;2022-10-16T00:46:01;5.90;;;2.70;;
58966;SDS011;44744;51.894;5.080;2022-10-16T00:47:04;5.00;;;2.60;;
58966;SDS011;44744;51.894;5.080;2022-10-16T00:48:10;6.80;;;2.80;;
58966;SDS011;44744;51.894;5.080;2022-10-16T00:49:14;7.80;;;3.70;;
58966;SDS011;44744;51.894;5.080;2022-10-16T00:51:25;4.60;;;2.40;;
58966;SDS011;44744;51.894;5.080;2022-10-16T00:52:32;4.00;;;2.40;;
58966;SDS011;44744;51.894;5.080;2022-10-16T00:53:33;4.30;;;2.90;;
58966;SDS011;44744;51.894;5.080;2022-10-16T00:54:34;11.00;;;3.00;;
58966;SDS011;44744;51.894;5.080;2022-10-16T00:55:35;5.50;;;2.60;;
58966;SDS011;44744;51.894;5.080;2022-10-16T00:56:36;5.80;;;3.10;;
58966;SDS011;44744;51.894;5.080;2022-10-16T00:57:36;5.90;;;2.80;;
58966;SDS011;44744;51.894;5.080;2022-10-16T00:58:37;5.90;;;3.20;;
58966;SDS011;44744;51.894;5.080;2022-10-16T00:59:40;4.60;;;2.60;;
58966;SDS011;44744;51.894;5.080;2022-10-16T01:00:42;5.90;;;2.90;;
58966;SDS011;44744;51.894;5.080;2022-10-16T01:01:42;9.40;;;2.70;;
58966;SDS011;44744;51.894;5.080;2022-10-16T01:02:42;8.60;;;2.60;;
58966;SDS011;44744;51.894;5.080;2022-10-16T01:03:43;7.40;;;2.90;;
58966;SDS011;44744;51.894;5.080;2022-10-16T01:04:47;7.70;;;3.00;;
58966;SDS011;44744;51.894;5.080;2022-10-16T01:06:05;4.80;;;2.50;;
58966;SDS011;44744;51.894;5.080;2022-10-16T01:08:33;5.80;;;2.60;;
58966;SDS011;44744;51.894;5.080;2022-10-16T01:12:30;4.90;;;2.70;;
58966;SDS011;44744;51.894;5.080;2022-10-16T01:13:33;5.60;;;2.60;;
58966;SDS011;44744;51.894;5.080;2022-10-16T01:16:31;4.80;;;2.90;;
58966;SDS011;44744;51.894;5.080;2022-10-16T01:17:47;6.20;;;2.80;;
58966;SDS011;44744;51.894;5.080;2022-10-16T01:19:05;4.90;;;2.50;;
58966;SDS011;44744;51.894;5.080;2022-10-16T01:20:21;4.50;;;2.40;;
58966;SDS011;44744;51.894;5.080;2022-10-16T01:21:41;4.10;;;2.50;;
58966;SDS011;44744;51.894;5.080;2022-10-16T01:23:27;4.40;;;2.70;;
58966;SDS011;44744;51.894;5.080;2022-10-16T01:25:44;8.20;;;2.70;;
58966;SDS011;44744;51.894;5.080;2022-10-16T01:28:09;5.20;;;2.50;;
58966;SDS011;44744;51.894;5.080;2022-10-16T01:30:16;4.50;;;2.70;;
58966;SDS011;44744;51.894;5.080;2022-10-16T01:31:03;6.70;;;2.70;;
58966;SDS011;44744;51.894;5.080;2022-10-16T01:32:06;4.90;;;2.60;;
58966;SDS011;44744;51.894;5.080;2022-10-16T01:33:20;4.60;;;2.50;;
58966;SDS011;44744;51.894;5.080;2022-10-16T01:34:33;5.80;;;2.40;;
58966;SDS011;44744;51.894;5.080;2022-10-16T01:35:39;5.30;;;2.90;;
58966;SDS011;44744;51.894;5.080;2022-10-16T01:36:47;4.60;;;2.60;;
58966;SDS011;44744;51.894;5.080;2022-10-16T01:38:55;3.70;;;2.50;;
58966;SDS011;44744;51.894;5.080;2022-10-16T01:40:00;4.60;;;2.70;;
58966;SDS011;44744;51.894;5.080;2022-10-16T01:41:27;3.80;;;2.60;;
58966;SDS011;44744;51.894;5.080;2022-10-16T01:42:33;4.90;;;2.50;;
58966;SDS011;44744;51.894;5.080;2022-10-16T01:43:38;3.80;;;2.40;;
58966;SDS011;44744;51.894;5.080;2022-10-16T01:44:43;4.00;;;2.40;;
58966;SDS011;44744;51.894;5.080;2022-10-16T01:45:46;4.40;;;2.40;;
58966;SDS011;44744;51.894;5.080;2022-10-16T01:46:48;4.00;;;2.60;;
58966;SDS011;44744;51.894;5.080;2022-10-16T01:47:51;4.70;;;2.40;;
58966;SDS011;44744;51.894;5.080;2022-10-16T01:48:53;4.20;;;2.20;;
58966;SDS011;44744;51.894;5.080;2022-10-16T01:49:54;5.20;;;2.30;;
58966;SDS011;44744;51.894;5.080;2022-10-16T01:51:00;3.80;;;2.50;;
58966;SDS011;44744;51.894;5.080;2022-10-16T01:52:08;3.90;;;2.50;;
58966;SDS011;44744;51.894;5.080;2022-10-16T01:53:12;4.90;;;2.90;;
58966;SDS011;44744;51.894;5.080;2022-10-16T01:54:14;6.10;;;2.80;;
58966;SDS011;44744;51.894;5.080;2022-10-16T01:55:21;3.90;;;2.70;;
58966;SDS011;44744;51.894;5.080;2022-10-16T01:56:24;5.40;;;2.50;;
58966;SDS011;44744;51.894;5.080;2022-10-16T01:57:26;12.00;;;2.50;;
58966;SDS011;44744;51.894;5.080;2022-10-16T01:58:28;4.90;;;2.70;;
58966;SDS011;44744;51.894;5.080;2022-10-16T01:59:33;5.00;;;2.50;;
58966;SDS011;44744;51.894;5.080;2022-10-16T02:00:39;4.20;;;2.60;;
58966;SDS011;44744;51.894;5.080;2022-10-16T02:01:44;4.60;;;2.50;;
58966;SDS011;44744;51.894;5.080;2022-10-16T02:02:51;4.20;;;2.40;;
58966;SDS011;44744;51.894;5.080;2022-10-16T02:03:54;4.90;;;2.40;;
58966;SDS011;44744;51.894;5.080;2022-10-16T02:05:02;3.60;;;2.40;;
58966;SDS011;44744;51.894;5.080;2022-10-16T02:06:08;5.50;;;2.10;;
58966;SDS011;44744;51.894;5.080;2022-10-16T02:07:08;4.80;;;2.40;;
58966;SDS011;44744;51.894;5.080;2022-10-16T02:08:10;4.70;;;2.50;;
58966;SDS011;44744;51.894;5.080;2022-10-16T02:09:10;5.60;;;2.80;;
58966;SDS011;44744;51.894;5.080;2022-10-16T02:10:12;3.70;;;2.20;;
58966;SDS011;44744;51.894;5.080;2022-10-16T02:11:12;4.90;;;2.40;;
58966;SDS011;44744;51.894;5.080;2022-10-16T02:12:14;5.50;;;2.70;;
58966;SDS011;44744;51.894;5.080;2022-10-16T02:13:23;3.60;;;2.50;;
58966;SDS011;44744;51.894;5.080;2022-10-16T02:14:41;5.60;;;2.20;;
58966;SDS011;44744;51.894;5.080;2022-10-16T02:15:41;4.00;;;2.40;;
58966;SDS011;44744;51.894;5.080;2022-10-16T02:16:43;3.90;;;2.10;;
58966;SDS011;44744;51.894;5.080;2022-10-16T02:17:45;7.40;;;2.70;;
58966;SDS011;44744;51.894;5.080;2022-10-16T02:18:46;3.90;;;2.30;;
58966;SDS011;44744;51.894;5.080;2022-10-16T02:19:47;3.90;;;2.00;;
58966;SDS011;44744;51.894;5.080;2022-10-16T02:22:04;3.70;;;2.10;;
58966;SDS011;44744;51.894;5.080;2022-10-16T02:23:10;5.00;;;2.30;;
58966;SDS011;44744;51.894;5.080;2022-10-16T02:25:40;5.40;;;1.90;;
58966;SDS011;44744;51.894;5.080;2022-10-16T02:27:54;3.40;;;2.30;;
58966;SDS011;44744;51.894;5.080;2022-10-16T02:29:01;3.60;;;2.30;;
58966;SDS011;44744;51.894;5.080;2022-10-16T02:31:27;2.80;;;1.80;;
58966;SDS011;44744;51.894;5.080;2022-10-16T02:32:31;3.00;;;1.90;;
58966;SDS011;44744;51.894;5.080;2022-10-16T02:33:32;3.10;;;2.10;;
58966;SDS011;44744;51.894;5.080;2022-10-16T02:35:36;4.20;;;2.30;;
58966;SDS011;44744;51.894;5.080;2022-10-16T02:36:39;6.90;;;2.30;;
58966;SDS011;44744;51.894;5.080;2022-10-16T02:37:41;3.30;;;2.10;;
58966;SDS011;44744;51.894;5.080;2022-10-16T02:38:42;4.00;;;2.10;;
58966;SDS011;44744;51.894;5.080;2022-10-16T02:39:43;6.10;;;2.30;;
58966;SDS011;44744;51.894;5.080;2022-10-16T02:40:43;4.50;;;2.30;;
58966;SDS011;44744;51.894;5.080;2022-10-16T02:41:44;3.20;;;2.10;;
58966;SDS011;44744;51.894;5.080;2022-10-16T02:42:49;3.00;;;1.90;;
58966;SDS011;44744;51.894;5.080;2022-10-16T02:43:51;3.50;;;2.30;;
58966;SDS011;44744;51.894;5.080;2022-10-16T02:44:51;5.30;;;2.50;;
58966;SDS011;44744;51.894;5.080;2022-10-16T02:45:51;3.90;;;2.40;;
58966;SDS011;44744;51.894;5.080;2022-10-16T02:46:51;3.10;;;2.00;;
58966;SDS011;44744;51.894;5.080;2022-10-16T02:47:52;4.20;;;2.00;;
58966;SDS011;44744;51.894;5.080;2022-10-16T02:48:52;3.30;;;2.00;;
58966;SDS011;44744;51.894;5.080;2022-10-16T02:49:52;3.60;;;1.80;;
58966;SDS011;44744;51.894;5.080;2022-10-16T02:50:53;2.50;;;1.80;;
58966;SDS011;44744;51.894;5.080;2022-10-16T02:51:53;3.70;;;2.20;;
58966;SDS011;44744;51.894;5.080;2022-10-16T02:52:53;5.30;;;1.90;;
58966;SDS011;44744;51.894;5.080;2022-10-16T02:53:54;4.50;;;2.60;;
58966;SDS011;44744;51.894;5.080;2022-10-16T02:54:54;2.90;;;1.80;;
58966;SDS011;44744;51.894;5.080;2022-10-16T02:55:55;5.70;;;2.20;;
58966;SDS011;44744;51.894;5.080;2022-10-16T02:56:55;5.30;;;2.20;;
58966;SDS011;44744;51.894;5.080;2022-10-16T02:57:55;3.00;;;1.80;;
58966;SDS011;44744;51.894;5.080;2022-10-16T02:58:56;4.20;;;2.40;;
58966;SDS011;44744;51.894;5.080;2022-10-16T02:59:56;2.90;;;1.90;;
58966;SDS011;44744;51.894;5.080;2022-10-16T03:00:56;4.70;;;2.30;;
58966;SDS011;44744;51.894;5.080;2022-10-16T03:01:57;3.50;;;2.10;;
58966;SDS011;44744;51.894;5.080;2022-10-16T03:02:57;3.60;;;2.00;;
58966;SDS011;44744;51.894;5.080;2022-10-16T03:03:57;3.90;;;2.20;;
58966;SDS011;44744;51.894;5.080;2022-10-16T03:04:57;6.20;;;2.10;;
58966;SDS011;44744;51.894;5.080;2022-10-16T03:05:58;4.10;;;2.00;;
58966;SDS011;44744;51.894;5.080;2022-10-16T03:06:58;2.30;;;1.60;;
58966;SDS011;44744;51.894;5.080;2022-10-16T03:07:58;3.30;;;2.00;;
58966;SDS011;44744;51.894;5.080;2022-10-16T03:08:58;3.90;;;2.00;;
58966;SDS011;44744;51.894;5.080;2022-10-16T03:09:59;5.20;;;2.20;;
58966;SDS011;44744;51.894;5.080;2022-10-16T03:10:59;2.60;;;1.90;;
58966;SDS011;44744;51.894;5.080;2022-10-16T03:11:59;3.20;;;2.10;;
58966;SDS011;44744;51.894;5.080;2022-10-16T03:13:00;6.60;;;2.20;;
58966;SDS011;44744;51.894;5.080;2022-10-16T03:14:00;3.10;;;2.00;;
58966;SDS011;44744;51.894;5.080;2022-10-16T03:15:00;6.50;;;1.70;;
58966;SDS011;44744;51.894;5.080;2022-10-16T03:16:04;4.80;;;2.20;;
58966;SDS011;44744;51.894;5.080;2022-10-16T03:17:04;3.40;;;1.90;;
58966;SDS011;44744;51.894;5.080;2022-10-16T03:18:06;3.70;;;2.20;;
58966;SDS011;44744;51.894;5.080;2022-10-16T03:19:06;3.20;;;1.70;;
58966;SDS011;44744;51.894;5.080;2022-10-16T03:20:07;2.70;;;1.70;;
58966;SDS011;44744;51.894;5.080;2022-10-16T03:21:07;3.40;;;1.80;;
58966;SDS011;44744;51.894;5.080;2022-10-16T03:22:07;4.40;;;1.90;;
58966;SDS011;44744;51.894;5.080;2022-10-16T03:23:08;4.50;;;2.60;;
58966;SDS011;44744;51.894;5.080;2022-10-16T03:24:08;4.20;;;2.30;;
58966;SDS011;44744;51.894;5.080;2022-10-16T03:25:08;3.00;;;1.70;;
58966;SDS011;44744;51.894;5.080;2022-10-16T03:26:10;6.30;;;1.80;;
58966;SDS011;44744;51.894;5.080;2022-10-16T03:27:10;4.00;;;2.10;;
58966;SDS011;44744;51.894;5.080;2022-10-16T03:28:10;3.30;;;2.10;;
58966;SDS011;44744;51.894;5.080;2022-10-16T03:29:11;8.30;;;2.20;;
58966;SDS011;44744;51.894;5.080;2022-10-16T03:30:11;2.80;;;1.70;;
58966;SDS011;44744;51.894;5.080;2022-10-16T03:31:12;3.80;;;2.00;;
58966;SDS011;44744;51.894;5.080;2022-10-16T03:32:12;3.40;;;1.90;;
58966;SDS011;44744;51.894;5.080;2022-10-16T03:33:12;3.00;;;1.90;;
58966;SDS011;44744;51.894;5.080;2022-10-16T03:34:13;4.70;;;2.30;;
58966;SDS011;44744;51.894;5.080;2022-10-16T03:35:13;4.50;;;1.80;;
58966;SDS011;44744;51.894;5.080;2022-10-16T03:36:13;7.30;;;2.20;;
58966;SDS011;44744;51.894;5.080;2022-10-16T03:37:13;4.80;;;1.90;;
58966;SDS011;44744;51.894;5.080;2022-10-16T03:38:14;4.60;;;2.00;;
58966;SDS011;44744;51.894;5.080;2022-10-16T03:39:14;3.30;;;1.80;;
58966;SDS011;44744;51.894;5.080;2022-10-16T03:40:14;3.80;;;1.80;;
58966;SDS011;44744;51.894;5.080;2022-10-16T03:41:15;3.20;;;1.70;;
58966;SDS011;44744;51.894;5.080;2022-10-16T03:42:15;4.30;;;2.00;;
58966;SDS011;44744;51.894;5.080;2022-10-16T03:43:16;2.80;;;1.80;;
58966;SDS011;44744;51.894;5.080;2022-10-16T03:44:16;3.80;;;2.00;;
58966;SDS011;44744;51.894;5.080;2022-10-16T03:45:16;3.30;;;2.10;;
58966;SDS011;44744;51.894;5.080;2022-10-16T03:46:17;2.40;;;1.70;;
58966;SDS011;44744;51.894;5.080;2022-10-16T03:47:17;4.40;;;1.80;;
58966;SDS011;44744;51.894;5.080;2022-10-16T03:48:18;2.90;;;1.80;;
58966;SDS011;44744;51.894;5.080;2022-10-16T03:49:19;3.00;;;1.60;;
58966;SDS011;44744;51.894;5.080;2022-10-16T03:50:19;4.50;;;1.90;;
58966;SDS011;44744;51.894;5.080;2022-10-16T03:51:19;5.20;;;2.60;;
58966;SDS011;44744;51.894;5.080;2022-10-16T03:52:19;5.00;;;2.00;;
58966;SDS011;44744;51.894;5.080;2022-10-16T03:53:20;4.00;;;2.10;;
58966;SDS011;44744;51.894;5.080;2022-10-16T03:54:20;5.10;;;2.20;;
58966;SDS011;44744;51.894;5.080;2022-10-16T03:55:20;6.00;;;1.70;;
58966;SDS011;44744;51.894;5.080;2022-10-16T03:56:21;4.20;;;1.90;;
58966;SDS011;44744;51.894;5.080;2022-10-16T03:57:21;3.10;;;1.70;;
58966;SDS011;44744;51.894;5.080;2022-10-16T03:58:21;3.50;;;1.80;;
58966;SDS011;44744;51.894;5.080;2022-10-16T03:59:22;4.60;;;2.00;;
58966;SDS011;44744;51.894;5.080;2022-10-16T04:00:22;3.80;;;1.70;;
58966;SDS011;44744;51.894;5.080;2022-10-16T04:01:22;4.10;;;1.90;;
58966;SDS011;44744;51.894;5.080;2022-10-16T04:02:22;3.20;;;1.90;;
58966;SDS011;44744;51.894;5.080;2022-10-16T04:03:23;5.60;;;1.80;;
58966;SDS011;44744;51.894;5.080;2022-10-16T04:04:23;2.40;;;1.60;;
58966;SDS011;44744;51.894;5.080;2022-10-16T04:05:23;6.70;;;1.90;;
58966;SDS011;44744;51.894;5.080;2022-10-16T04:06:23;6.50;;;1.60;;
58966;SDS011;44744;51.894;5.080;2022-10-16T04:07:24;4.10;;;1.80;;
58966;SDS011;44744;51.894;5.080;2022-10-16T04:08:24;3.60;;;1.90;;
58966;SDS011;44744;51.894;5.080;2022-10-16T04:09:24;3.20;;;2.00;;
58966;SDS011;44744;51.894;5.080;2022-10-16T04:10:26;3.00;;;1.60;;
58966;SDS011;44744;51.894;5.080;2022-10-16T04:11:26;3.00;;;1.90;;
58966;SDS011;44744;51.894;5.080;2022-10-16T04:12:27;4.00;;;1.90;;
58966;SDS011;44744;51.894;5.080;2022-10-16T04:13:27;3.20;;;1.70;;
58966;SDS011;44744;51.894;5.080;2022-10-16T04:14:27;2.90;;;1.70;;
58966;SDS011;44744;51.894;5.080;2022-10-16T04:15:28;2.60;;;1.70;;
58966;SDS011;44744;51.894;5.080;2022-10-16T04:16:28;6.10;;;1.80;;
58966;SDS011;44744;51.894;5.080;2022-10-16T04:17:28;3.30;;;1.80;;
58966;SDS011;44744;51.894;5.080;2022-10-16T04:18:28;4.00;;;1.70;;
58966;SDS011;44744;51.894;5.080;2022-10-16T04:19:29;3.00;;;1.90;;
58966;SDS011;44744;51.894;5.080;2022-10-16T04:20:29;4.80;;;2.00;;
58966;SDS011;44744;51.894;5.080;2022-10-16T04:21:29;5.10;;;1.60;;
58966;SDS011;44744;51.894;5.080;2022-10-16T04:22:29;3.30;;;1.90;;
58966;SDS011;44744;51.894;5.080;2022-10-16T04:23:30;4.40;;;1.80;;
58966;SDS011;44744;51.894;5.080;2022-10-16T04:24:30;3.50;;;1.90;;
58966;SDS011;44744;51.894;5.080;2022-10-16T04:25:30;3.10;;;2.10;;
58966;SDS011;44744;51.894;5.080;2022-10-16T04:26:31;4.50;;;1.80;;
58966;SDS011;44744;51.894;5.080;2022-10-16T04:27:31;3.20;;;1.80;;
58966;SDS011;44744;51.894;5.080;2022-10-16T04:28:31;6.40;;;1.70;;
58966;SDS011;44744;51.894;5.080;2022-10-16T04:29:32;3.50;;;2.20;;
58966;SDS011;44744;51.894;5.080;2022-10-16T04:30:32;3.80;;;2.00;;
58966;SDS011;44744;51.894;5.080;2022-10-16T04:31:33;6.30;;;2.10;;
58966;SDS011;44744;51.894;5.080;2022-10-16T04:32:33;4.20;;;2.30;;
58966;SDS011;44744;51.894;5.080;2022-10-16T04:33:33;5.20;;;1.90;;
58966;SDS011;44744;51.894;5.080;2022-10-16T04:34:34;3.10;;;1.60;;
58966;SDS011;44744;51.894;5.080;2022-10-16T04:35:34;5.50;;;2.00;;
58966;SDS011;44744;51.894;5.080;2022-10-16T04:36:34;4.00;;;2.00;;
58966;SDS011;44744;51.894;5.080;2022-10-16T04:37:35;4.00;;;2.10;;
58966;SDS011;44744;51.894;5.080;2022-10-16T04:38:35;3.30;;;1.90;;
58966;SDS011;44744;51.894;5.080;2022-10-16T04:39:35;4.20;;;1.80;;
58966;SDS011;44744;51.894;5.080;2022-10-16T04:40:35;4.00;;;2.20;;
58966;SDS011;44744;51.894;5.080;2022-10-16T04:41:35;5.30;;;2.00;;
58966;SDS011;44744;51.894;5.080;2022-10-16T04:42:36;3.20;;;1.60;;
58966;SDS011;44744;51.894;5.080;2022-10-16T04:43:36;2.70;;;1.80;;
58966;SDS011;44744;51.894;5.080;2022-10-16T04:44:36;4.30;;;1.90;;
58966;SDS011;44744;51.894;5.080;2022-10-16T04:45:39;5.10;;;2.00;;
58966;SDS011;44744;51.894;5.080;2022-10-16T04:46:39;6.60;;;2.00;;
58966;SDS011;44744;51.894;5.080;2022-10-16T04:47:39;4.40;;;2.00;;
58966;SDS011;44744;51.894;5.080;2022-10-16T04:48:40;3.70;;;1.70;;
58966;SDS011;44744;51.894;5.080;2022-10-16T04:49:40;4.50;;;1.70;;
58966;SDS011;44744;51.894;5.080;2022-10-16T04:50:40;6.30;;;2.10;;
58966;SDS011;44744;51.894;5.080;2022-10-16T04:51:41;4.60;;;2.00;;
58966;SDS011;44744;51.894;5.080;2022-10-16T04:52:46;3.70;;;1.80;;
58966;SDS011;44744;51.894;5.080;2022-10-16T04:53:50;4.30;;;2.00;;
58966;SDS011;44744;51.894;5.080;2022-10-16T04:54:51;3.50;;;2.00;;
58966;SDS011;44744;51.894;5.080;2022-10-16T04:55:52;4.60;;;2.10;;
58966;SDS011;44744;51.894;5.080;2022-10-16T04:56:52;2.60;;;1.80;;
58966;SDS011;44744;51.894;5.080;2022-10-16T04:57:54;3.00;;;1.70;;
58966;SDS011;44744;51.894;5.080;2022-10-16T04:58:55;4.20;;;1.90;;
58966;SDS011;44744;51.894;5.080;2022-10-16T04:59:55;4.50;;;2.20;;
58966;SDS011;44744;51.894;5.080;2022-10-16T05:00:55;3.80;;;2.00;;
58966;SDS011;44744;51.894;5.080;2022-10-16T05:01:56;4.70;;;2.10;;
58966;SDS011;44744;51.894;5.080;2022-10-16T05:02:56;3.20;;;2.20;;
58966;SDS011;44744;51.894;5.080;2022-10-16T05:03:56;5.00;;;2.00;;
58966;SDS011;44744;51.894;5.080;2022-10-16T05:04:56;3.20;;;1.70;;
58966;SDS011;44744;51.894;5.080;2022-10-16T05:05:58;3.80;;;2.10;;
58966;SDS011;44744;51.894;5.080;2022-10-16T05:06:58;2.50;;;1.80;;
58966;SDS011;44744;51.894;5.080;2022-10-16T05:07:59;2.80;;;1.80;;
58966;SDS011;44744;51.894;5.080;2022-10-16T05:08:59;6.00;;;2.10;;
58966;SDS011;44744;51.894;5.080;2022-10-16T05:09:59;4.10;;;2.20;;
58966;SDS011;44744;51.894;5.080;2022-10-16T05:11:00;4.90;;;1.90;;
58966;SDS011;44744;51.894;5.080;2022-10-16T05:12:00;3.10;;;1.80;;
58966;SDS011;44744;51.894;5.080;2022-10-16T05:13:00;3.50;;;2.10;;
58966;SDS011;44744;51.894;5.080;2022-10-16T05:14:01;4.80;;;2.10;;
58966;SDS011;44744;51.894;5.080;2022-10-16T05:15:02;3.80;;;2.00;;
58966;SDS011;44744;51.894;5.080;2022-10-16T05:16:03;3.80;;;1.80;;
58966;SDS011;44744;51.894;5.080;2022-10-16T05:17:03;6.70;;;2.30;;
58966;SDS011;44744;51.894;5.080;2022-10-16T05:18:04;3.20;;;1.90;;
58966;SDS011;44744;51.894;5.080;2022-10-16T05:19:04;8.30;;;2.10;;
58966;SDS011;44744;51.894;5.080;2022-10-16T05:20:07;5.10;;;2.00;;
58966;SDS011;44744;51.894;5.080;2022-10-16T05:21:07;5.30;;;2.10;;
58966;SDS011;44744;51.894;5.080;2022-10-16T05:22:08;5.70;;;2.20;;
58966;SDS011;44744;51.894;5.080;2022-10-16T05:23:08;4.00;;;2.20;;
58966;SDS011;44744;51.894;5.080;2022-10-16T05:24:09;5.70;;;2.10;;
58966;SDS011;44744;51.894;5.080;2022-10-16T05:25:09;5.70;;;1.90;;
58966;SDS011;44744;51.894;5.080;2022-10-16T05:26:09;3.80;;;2.00;;
58966;SDS011;44744;51.894;5.080;2022-10-16T05:27:10;4.20;;;2.20;;
58966;SDS011;44744;51.894;5.080;2022-10-16T05:28:10;3.30;;;2.10;;
58966;SDS011;44744;51.894;5.080;2022-10-16T05:29:10;6.00;;;3.00;;
58966;SDS011;44744;51.894;5.080;2022-10-16T05:30:10;7.40;;;2.10;;
58966;SDS011;44744;51.894;5.080;2022-10-16T05:31:11;3.90;;;2.20;;
58966;SDS011;44744;51.894;5.080;2022-10-16T05:32:11;5.80;;;2.20;;
58966;SDS011;44744;51.894;5.080;2022-10-16T05:33:11;4.20;;;2.10;;
58966;SDS011;44744;51.894;5.080;2022-10-16T05:34:12;4.20;;;2.10;;
58966;SDS011;44744;51.894;5.080;2022-10-16T05:35:12;3.40;;;1.90;;
58966;SDS011;44744;51.894;5.080;2022-10-16T05:36:12;5.70;;;2.10;;
58966;SDS011;44744;51.894;5.080;2022-10-16T05:37:13;5.70;;;2.10;;
58966;SDS011;44744;51.894;5.080;2022-10-16T05:38:13;3.50;;;2.10;;
58966;SDS011;44744;51.894;5.080;2022-10-16T05:39:14;4.40;;;2.10;;
58966;SDS011;44744;51.894;5.080;2022-10-16T05:40:15;5.70;;;2.30;;
58966;SDS011;44744;51.894;5.080;2022-10-16T05:41:15;3.40;;;2.00;;
58966;SDS011;44744;51.894;5.080;2022-10-16T05:42:16;3.70;;;2.00;;
58966;SDS011;44744;51.894;5.080;2022-10-16T05:43:16;4.70;;;2.10;;
58966;SDS011;44744;51.894;5.080;2022-10-16T05:44:16;4.00;;;2.20;;
58966;SDS011;44744;51.894;5.080;2022-10-16T05:45:16;5.50;;;1.90;;
58966;SDS011;44744;51.894;5.080;2022-10-16T05:46:17;4.00;;;2.30;;
58966;SDS011;44744;51.894;5.080;2022-10-16T05:47:17;3.20;;;2.20;;
58966;SDS011;44744;51.894;5.080;2022-10-16T05:48:17;5.80;;;2.50;;
58966;SDS011;44744;51.894;5.080;2022-10-16T05:49:17;4.30;;;2.40;;
58966;SDS011;44744;51.894;5.080;2022-10-16T05:50:25;4.50;;;2.30;;
58966;SDS011;44744;51.894;5.080;2022-10-16T05:51:26;3.30;;;2.10;;
58966;SDS011;44744;51.894;5.080;2022-10-16T05:52:27;4.40;;;2.10;;
58966;SDS011;44744;51.894;5.080;2022-10-16T05:53:28;3.50;;;2.20;;
58966;SDS011;44744;51.894;5.080;2022-10-16T05:54:30;6.60;;;2.20;;
58966;SDS011;44744;51.894;5.080;2022-10-16T05:55:30;3.70;;;2.20;;
58966;SDS011;44744;51.894;5.080;2022-10-16T05:56:30;6.90;;;2.30;;
58966;SDS011;44744;51.894;5.080;2022-10-16T05:57:31;6.20;;;2.60;;
58966;SDS011;44744;51.894;5.080;2022-10-16T05:58:32;4.60;;;2.30;;
58966;SDS011;44744;51.894;5.080;2022-10-16T05:59:34;3.30;;;2.40;;
58966;SDS011;44744;51.894;5.080;2022-10-16T06:00:34;6.20;;;2.20;;
58966;SDS011;44744;51.894;5.080;2022-10-16T06:01:34;3.60;;;2.20;;
58966;SDS011;44744;51.894;5.080;2022-10-16T06:02:35;5.50;;;2.50;;
58966;SDS011;44744;51.894;5.080;2022-10-16T06:03:35;5.00;;;2.90;;
58966;SDS011;44744;51.894;5.080;2022-10-16T06:04:35;4.40;;;2.40;;
58966;SDS011;44744;51.894;5.080;2022-10-16T06:05:36;4.50;;;2.20;;
58966;SDS011;44744;51.894;5.080;2022-10-16T06:06:36;5.20;;;2.40;;
58966;SDS011;44744;51.894;5.080;2022-10-16T06:07:36;3.80;;;2.30;;
58966;SDS011;44744;51.894;5.080;2022-10-16T06:08:36;4.80;;;2.10;;
58966;SDS011;44744;51.894;5.080;2022-10-16T06:09:37;5.30;;;2.40;;
58966;SDS011;44744;51.894;5.080;2022-10-16T06:10:38;4.10;;;2.10;;
58966;SDS011;44744;51.894;5.080;2022-10-16T06:11:38;3.30;;;2.10;;
58966;SDS011;44744;51.894;5.080;2022-10-16T06:12:38;3.00;;;2.00;;
58966;SDS011;44744;51.894;5.080;2022-10-16T06:13:39;4.90;;;2.10;;
58966;SDS011;44744;51.894;5.080;2022-10-16T06:14:39;4.90;;;2.00;;
58966;SDS011;44744;51.894;5.080;2022-10-16T06:15:40;4.40;;;2.30;;
58966;SDS011;44744;51.894;5.080;2022-10-16T06:16:43;4.90;;;2.10;;
58966;SDS011;44744;51.894;5.080;2022-10-16T06:17:43;4.30;;;2.20;;
58966;SDS011;44744;51.894;5.080;2022-10-16T06:18:43;5.50;;;2.50;;
58966;SDS011;44744;51.894;5.080;2022-10-16T06:19:43;5.20;;;2.50;;
58966;SDS011;44744;51.894;5.080;2022-10-16T06:20:44;5.20;;;2.00;;
58966;SDS011;44744;51.894;5.080;2022-10-16T06:21:44;4.20;;;2.40;;
58966;SDS011;44744;51.894;5.080;2022-10-16T06:22:44;3.60;;;1.90;;
58966;SDS011;44744;51.894;5.080;2022-10-16T06:23:45;4.40;;;2.30;;
58966;SDS011;44744;51.894;5.080;2022-10-16T06:24:46;6.10;;;2.40;;
58966;SDS011;44744;51.894;5.080;2022-10-16T06:25:46;3.40;;;2.10;;
58966;SDS011;44744;51.894;5.080;2022-10-16T06:26:46;4.10;;;2.30;;
58966;SDS011;44744;51.894;5.080;2022-10-16T06:27:48;3.80;;;2.20;;
58966;SDS011;44744;51.894;5.080;2022-10-16T06:28:48;5.90;;;2.60;;
58966;SDS011;44744;51.894;5.080;2022-10-16T06:29:49;5.70;;;2.70;;